sensor_id;sensor_type;location;lat;lon;timestamp;P1;durP1;ratioP1;P2;durP2;ratioP2
8312;SDS011;4194;43.408;24.626;2023-01-01T00:01:35;292.30;;;185.37;;
8312;SDS011;4194;43.408;24.626;2023-01-01T00:04:04;280.67;;;174.70;;
8312;SDS011;4194;43.408;24.626;2023-01-01T00:06:32;285.20;;;179.23;;
8312;SDS011;4194;43.408;24.626;2023-01-01T00:08:59;300.70;;;184.07;;
8312;SDS011;4194;43.408;24.626;2023-01-01T00:11:57;346.23;;;211.47;;
8312;SDS011;4194;43.408;24.626;2023-01-01T00:14:22;392.30;;;239.17;;
8312;SDS011;4194;43.408;24.626;2023-01-01T00:16:48;374.33;;;227.73;;
8312;SDS011;4194;43.408;24.626;2023-01-01T00:19:14;371.13;;;229.47;;
8312;SDS011;4194;43.408;24.626;2023-01-01T00:21:39;323.63;;;201.37;;
8312;SDS011;4194;43.408;24.626;2023-01-01T00:24:05;329.10;;;193.33;;
8312;SDS011;4194;43.408;24.626;2023-01-01T00:26:31;313.33;;;191.73;;
8312;SDS011;4194;43.408;24.626;2023-01-01T00:28:57;293.00;;;169.07;;
8312;SDS011;4194;43.408;24.626;2023-01-01T00:31:23;288.47;;;175.07;;
8312;SDS011;4194;43.408;24.626;2023-01-01T00:33:51;302.20;;;176.10;;
8312;SDS011;4194;43.408;24.626;2023-01-01T00:36:19;288.27;;;171.73;;
8312;SDS011;4194;43.408;24.626;2023-01-01T00:38:45;284.63;;;171.67;;
8312;SDS011;4194;43.408;24.626;2023-01-01T00:41:11;282.40;;;172.37;;
8312;SDS011;4194;43.408;24.626;2023-01-01T00:43:38;279.67;;;166.43;;
8312;SDS011;4194;43.408;24.626;2023-01-01T00:46:05;260.73;;;151.20;;
8312;SDS011;4194;43.408;24.626;2023-01-01T00:48:34;256.07;;;153.13;;
8312;SDS011;4194;43.408;24.626;2023-01-01T00:51:00;257.33;;;147.43;;
8312;SDS011;4194;43.408;24.626;2023-01-01T00:53:26;261.17;;;158.07;;
8312;SDS011;4194;43.408;24.626;2023-01-01T00:55:52;279.33;;;164.07;;
8312;SDS011;4194;43.408;24.626;2023-01-01T00:58:20;274.63;;;161.27;;
8312;SDS011;4194;43.408;24.626;2023-01-01T01:00:47;275.33;;;163.50;;
8312;SDS011;4194;43.408;24.626;2023-01-01T01:03:14;265.23;;;161.13;;
8312;SDS011;4194;43.408;24.626;2023-01-01T01:05:56;277.17;;;159.23;;
8312;SDS011;4194;43.408;24.626;2023-01-01T01:08:23;285.70;;;163.70;;
8312;SDS011;4194;43.408;24.626;2023-01-01T01:10:50;274.80;;;163.90;;
8312;SDS011;4194;43.408;24.626;2023-01-01T01:13:16;283.27;;;163.30;;
8312;SDS011;4194;43.408;24.626;2023-01-01T01:15:42;274.43;;;162.23;;
8312;SDS011;4194;43.408;24.626;2023-01-01T01:18:08;274.90;;;158.87;;
8312;SDS011;4194;43.408;24.626;2023-01-01T01:20:33;261.60;;;154.27;;
8312;SDS011;4194;43.408;24.626;2023-01-01T01:22:59;231.90;;;143.07;;
8312;SDS011;4194;43.408;24.626;2023-01-01T01:25:25;230.47;;;135.63;;
8312;SDS011;4194;43.408;24.626;2023-01-01T01:27:50;225.00;;;133.67;;
8312;SDS011;4194;43.408;24.626;2023-01-01T01:30:16;228.40;;;132.90;;
8312;SDS011;4194;43.408;24.626;2023-01-01T01:32:42;224.00;;;129.33;;
8312;SDS011;4194;43.408;24.626;2023-01-01T01:35:07;195.60;;;118.07;;
8312;SDS011;4194;43.408;24.626;2023-01-01T01:37:34;175.63;;;105.53;;
8312;SDS011;4194;43.408;24.626;2023-01-01T01:40:00;185.97;;;111.97;;
8312;SDS011;4194;43.408;24.626;2023-01-01T01:42:26;183.57;;;112.07;;
8312;SDS011;4194;43.408;24.626;2023-01-01T01:44:53;180.17;;;108.30;;
8312;SDS011;4194;43.408;24.626;2023-01-01T01:49:53;188.63;;;111.13;;
8312;SDS011;4194;43.408;24.626;2023-01-01T01:52:33;187.87;;;107.00;;
8312;SDS011;4194;43.408;24.626;2023-01-01T01:55:03;167.70;;;98.80;;
8312;SDS011;4194;43.408;24.626;2023-01-01T01:57:31;153.00;;;88.80;;
8312;SDS011;4194;43.408;24.626;2023-01-01T01:59:57;150.20;;;89.20;;
8312;SDS011;4194;43.408;24.626;2023-01-01T02:02:31;139.87;;;81.93;;
8312;SDS011;4194;43.408;24.626;2023-01-01T02:05:03;146.07;;;81.33;;
8312;SDS011;4194;43.408;24.626;2023-01-01T02:07:30;157.00;;;88.17;;
8312;SDS011;4194;43.408;24.626;2023-01-01T02:09:58;134.43;;;80.13;;
8312;SDS011;4194;43.408;24.626;2023-01-01T02:12:25;111.30;;;67.30;;
8312;SDS011;4194;43.408;24.626;2023-01-01T02:14:52;97.40;;;59.33;;
8312;SDS011;4194;43.408;24.626;2023-01-01T02:17:27;59.00;;;38.70;;
8312;SDS011;4194;43.408;24.626;2023-01-01T02:30:46;29.00;;;20.70;;
8312;SDS011;4194;43.408;24.626;2023-01-01T02:33:13;32.53;;;21.97;;
8312;SDS011;4194;43.408;24.626;2023-01-01T02:35:45;30.37;;;21.97;;
8312;SDS011;4194;43.408;24.626;2023-01-01T02:38:29;32.00;;;21.00;;
8312;SDS011;4194;43.408;24.626;2023-01-01T02:41:01;29.67;;;19.93;;
8312;SDS011;4194;43.408;24.626;2023-01-01T02:43:31;29.50;;;18.87;;
8312;SDS011;4194;43.408;24.626;2023-01-01T02:45:57;23.53;;;16.83;;
8312;SDS011;4194;43.408;24.626;2023-01-01T02:48:37;23.97;;;18.53;;
8312;SDS011;4194;43.408;24.626;2023-01-01T02:51:15;24.93;;;18.70;;
8312;SDS011;4194;43.408;24.626;2023-01-01T02:59:36;29.53;;;20.80;;
8312;SDS011;4194;43.408;24.626;2023-01-01T03:03:18;30.43;;;25.20;;
8312;SDS011;4194;43.408;24.626;2023-01-01T03:11:18;18.40;;;15.07;;
8312;SDS011;4194;43.408;24.626;2023-01-01T03:13:47;16.63;;;13.30;;
8312;SDS011;4194;43.408;24.626;2023-01-01T03:19:15;22.17;;;13.03;;
8312;SDS011;4194;43.408;24.626;2023-01-01T03:21:49;19.43;;;12.93;;
8312;SDS011;4194;43.408;24.626;2023-01-01T03:24:39;19.70;;;12.80;;
8312;SDS011;4194;43.408;24.626;2023-01-01T03:27:10;16.53;;;12.53;;
8312;SDS011;4194;43.408;24.626;2023-01-01T03:29:49;16.83;;;12.57;;
8312;SDS011;4194;43.408;24.626;2023-01-01T03:32:18;14.03;;;10.33;;
8312;SDS011;4194;43.408;24.626;2023-01-01T03:35:09;16.70;;;10.53;;
8312;SDS011;4194;43.408;24.626;2023-01-01T03:37:37;13.87;;;9.77;;
8312;SDS011;4194;43.408;24.626;2023-01-01T03:40:04;13.17;;;9.97;;
8312;SDS011;4194;43.408;24.626;2023-01-01T03:42:37;17.10;;;9.47;;
8312;SDS011;4194;43.408;24.626;2023-01-01T03:45:06;12.87;;;9.70;;
8312;SDS011;4194;43.408;24.626;2023-01-01T03:47:40;13.50;;;9.57;;
8312;SDS011;4194;43.408;24.626;2023-01-01T03:50:05;12.30;;;9.47;;
8312;SDS011;4194;43.408;24.626;2023-01-01T04:00:59;36.13;;;17.80;;
8312;SDS011;4194;43.408;24.626;2023-01-01T04:03:39;63.83;;;25.67;;
8312;SDS011;4194;43.408;24.626;2023-01-01T04:06:06;58.97;;;25.33;;
8312;SDS011;4194;43.408;24.626;2023-01-01T04:08:33;67.87;;;25.60;;
8312;SDS011;4194;43.408;24.626;2023-01-01T04:11:00;63.47;;;27.53;;
8312;SDS011;4194;43.408;24.626;2023-01-01T04:13:51;53.17;;;22.70;;
8312;SDS011;4194;43.408;24.626;2023-01-01T04:16:17;43.53;;;19.57;;
8312;SDS011;4194;43.408;24.626;2023-01-01T04:18:42;52.17;;;25.23;;
8312;SDS011;4194;43.408;24.626;2023-01-01T04:21:08;46.93;;;20.80;;
8312;SDS011;4194;43.408;24.626;2023-01-01T04:23:34;43.53;;;21.77;;
8312;SDS011;4194;43.408;24.626;2023-01-01T04:26:00;51.40;;;23.23;;
8312;SDS011;4194;43.408;24.626;2023-01-01T04:28:25;42.90;;;22.27;;
8312;SDS011;4194;43.408;24.626;2023-01-01T04:30:51;48.30;;;24.07;;
8312;SDS011;4194;43.408;24.626;2023-01-01T04:33:17;46.83;;;23.17;;
8312;SDS011;4194;43.408;24.626;2023-01-01T04:35:42;32.10;;;17.80;;
8312;SDS011;4194;43.408;24.626;2023-01-01T04:38:11;32.93;;;18.47;;
8312;SDS011;4194;43.408;24.626;2023-01-01T04:40:40;32.47;;;17.83;;
8312;SDS011;4194;43.408;24.626;2023-01-01T04:43:05;30.73;;;18.07;;
8312;SDS011;4194;43.408;24.626;2023-01-01T04:45:31;27.73;;;16.63;;
8312;SDS011;4194;43.408;24.626;2023-01-01T04:48:02;30.43;;;16.50;;
8312;SDS011;4194;43.408;24.626;2023-01-01T04:50:28;32.27;;;17.37;;
8312;SDS011;4194;43.408;24.626;2023-01-01T04:52:54;25.17;;;15.27;;
8312;SDS011;4194;43.408;24.626;2023-01-01T04:55:22;21.03;;;13.23;;
8312;SDS011;4194;43.408;24.626;2023-01-01T04:57:48;22.53;;;12.90;;
8312;SDS011;4194;43.408;24.626;2023-01-01T05:00:14;21.77;;;12.77;;
8312;SDS011;4194;43.408;24.626;2023-01-01T05:02:40;19.90;;;12.20;;
8312;SDS011;4194;43.408;24.626;2023-01-01T05:05:06;18.83;;;12.50;;
8312;SDS011;4194;43.408;24.626;2023-01-01T05:07:32;19.20;;;11.57;;
8312;SDS011;4194;43.408;24.626;2023-01-01T05:09:57;20.77;;;12.07;;
8312;SDS011;4194;43.408;24.626;2023-01-01T05:12:23;17.53;;;11.70;;
8312;SDS011;4194;43.408;24.626;2023-01-01T05:14:49;20.83;;;12.70;;
8312;SDS011;4194;43.408;24.626;2023-01-01T05:17:15;16.73;;;12.07;;
8312;SDS011;4194;43.408;24.626;2023-01-01T05:19:40;16.80;;;11.70;;
8312;SDS011;4194;43.408;24.626;2023-01-01T05:22:06;17.50;;;11.10;;
8312;SDS011;4194;43.408;24.626;2023-01-01T05:24:32;18.50;;;10.43;;
8312;SDS011;4194;43.408;24.626;2023-01-01T05:27:00;18.97;;;11.13;;
8312;SDS011;4194;43.408;24.626;2023-01-01T05:29:26;19.63;;;12.83;;
8312;SDS011;4194;43.408;24.626;2023-01-01T05:31:51;28.60;;;16.83;;
8312;SDS011;4194;43.408;24.626;2023-01-01T05:34:17;36.00;;;21.67;;
8312;SDS011;4194;43.408;24.626;2023-01-01T05:36:42;57.77;;;32.90;;
8312;SDS011;4194;43.408;24.626;2023-01-01T05:39:09;65.63;;;39.67;;
8312;SDS011;4194;43.408;24.626;2023-01-01T05:41:36;63.43;;;40.37;;
8312;SDS011;4194;43.408;24.626;2023-01-01T05:44:03;60.53;;;36.80;;
8312;SDS011;4194;43.408;24.626;2023-01-01T05:46:30;60.93;;;38.33;;
8312;SDS011;4194;43.408;24.626;2023-01-01T05:48:56;59.97;;;39.77;;
8312;SDS011;4194;43.408;24.626;2023-01-01T05:51:22;42.60;;;28.10;;
8312;SDS011;4194;43.408;24.626;2023-01-01T05:53:50;45.77;;;30.47;;
8312;SDS011;4194;43.408;24.626;2023-01-01T05:56:17;53.50;;;33.07;;
8312;SDS011;4194;43.408;24.626;2023-01-01T05:58:43;46.77;;;27.50;;
8312;SDS011;4194;43.408;24.626;2023-01-01T06:03:40;33.27;;;19.90;;
8312;SDS011;4194;43.408;24.626;2023-01-01T06:06:07;26.03;;;17.10;;
8312;SDS011;4194;43.408;24.626;2023-01-01T06:08:35;30.03;;;17.97;;
8312;SDS011;4194;43.408;24.626;2023-01-01T06:11:02;27.80;;;17.13;;
8312;SDS011;4194;43.408;24.626;2023-01-01T06:13:29;28.93;;;17.23;;
8312;SDS011;4194;43.408;24.626;2023-01-01T06:15:56;26.07;;;17.90;;
8312;SDS011;4194;43.408;24.626;2023-01-01T06:18:23;25.47;;;18.33;;
8312;SDS011;4194;43.408;24.626;2023-01-01T06:20:49;26.77;;;18.30;;
8312;SDS011;4194;43.408;24.626;2023-01-01T06:23:16;27.10;;;18.17;;
8312;SDS011;4194;43.408;24.626;2023-01-01T06:25:42;23.70;;;15.87;;
8312;SDS011;4194;43.408;24.626;2023-01-01T06:28:08;26.43;;;16.57;;
8312;SDS011;4194;43.408;24.626;2023-01-01T06:30:33;23.83;;;15.43;;
8312;SDS011;4194;43.408;24.626;2023-01-01T06:33:00;23.20;;;16.30;;
8312;SDS011;4194;43.408;24.626;2023-01-01T06:35:26;20.80;;;15.50;;
8312;SDS011;4194;43.408;24.626;2023-01-01T06:37:52;25.40;;;15.27;;
8312;SDS011;4194;43.408;24.626;2023-01-01T06:40:18;21.10;;;14.93;;
8312;SDS011;4194;43.408;24.626;2023-01-01T06:42:44;22.33;;;15.60;;
8312;SDS011;4194;43.408;24.626;2023-01-01T06:45:09;21.87;;;15.70;;
8312;SDS011;4194;43.408;24.626;2023-01-01T06:47:37;21.50;;;15.80;;
8312;SDS011;4194;43.408;24.626;2023-01-01T06:50:03;23.40;;;16.33;;
8312;SDS011;4194;43.408;24.626;2023-01-01T06:52:29;23.53;;;15.40;;
8312;SDS011;4194;43.408;24.626;2023-01-01T06:54:55;26.37;;;15.93;;
8312;SDS011;4194;43.408;24.626;2023-01-01T06:57:22;27.03;;;15.70;;
8312;SDS011;4194;43.408;24.626;2023-01-01T06:59:48;22.50;;;16.07;;
8312;SDS011;4194;43.408;24.626;2023-01-01T07:02:14;24.90;;;16.53;;
8312;SDS011;4194;43.408;24.626;2023-01-01T07:04:39;28.30;;;16.33;;
8312;SDS011;4194;43.408;24.626;2023-01-01T07:07:05;24.73;;;15.90;;
8312;SDS011;4194;43.408;24.626;2023-01-01T07:09:31;28.60;;;17.57;;
8312;SDS011;4194;43.408;24.626;2023-01-01T07:11:56;31.70;;;17.90;;
8312;SDS011;4194;43.408;24.626;2023-01-01T07:14:22;28.03;;;17.33;;
8312;SDS011;4194;43.408;24.626;2023-01-01T07:16:48;23.30;;;15.83;;
8312;SDS011;4194;43.408;24.626;2023-01-01T07:19:13;28.33;;;17.73;;
8312;SDS011;4194;43.408;24.626;2023-01-01T07:21:40;30.67;;;18.63;;
8312;SDS011;4194;43.408;24.626;2023-01-01T07:24:11;32.60;;;18.83;;
8312;SDS011;4194;43.408;24.626;2023-01-01T07:26:37;38.07;;;19.30;;
8312;SDS011;4194;43.408;24.626;2023-01-01T07:29:05;28.23;;;19.23;;
8312;SDS011;4194;43.408;24.626;2023-01-01T07:31:32;29.80;;;18.03;;
8312;SDS011;4194;43.408;24.626;2023-01-01T07:33:59;28.97;;;18.57;;
8312;SDS011;4194;43.408;24.626;2023-01-01T07:36:25;27.07;;;19.90;;
8312;SDS011;4194;43.408;24.626;2023-01-01T07:38:50;33.20;;;20.00;;
8312;SDS011;4194;43.408;24.626;2023-01-01T07:41:16;29.17;;;19.30;;
8312;SDS011;4194;43.408;24.626;2023-01-01T07:43:42;45.03;;;26.43;;
8312;SDS011;4194;43.408;24.626;2023-01-01T07:46:11;50.27;;;30.43;;
8312;SDS011;4194;43.408;24.626;2023-01-01T07:48:37;41.73;;;25.70;;
8312;SDS011;4194;43.408;24.626;2023-01-01T07:51:03;37.83;;;23.37;;
8312;SDS011;4194;43.408;24.626;2023-01-01T07:53:28;34.63;;;20.97;;
8312;SDS011;4194;43.408;24.626;2023-01-01T07:55:54;32.13;;;21.17;;
8312;SDS011;4194;43.408;24.626;2023-01-01T07:58:20;34.37;;;20.73;;
8312;SDS011;4194;43.408;24.626;2023-01-01T08:00:47;34.40;;;19.87;;
8312;SDS011;4194;43.408;24.626;2023-01-01T08:03:13;30.90;;;19.13;;
8312;SDS011;4194;43.408;24.626;2023-01-01T08:05:39;33.27;;;18.97;;
8312;SDS011;4194;43.408;24.626;2023-01-01T08:08:05;34.93;;;22.83;;
8312;SDS011;4194;43.408;24.626;2023-01-01T08:10:31;47.53;;;28.97;;
8312;SDS011;4194;43.408;24.626;2023-01-01T08:12:58;64.80;;;37.43;;
8312;SDS011;4194;43.408;24.626;2023-01-01T08:15:27;48.15;;;30.48;;
8312;SDS011;4194;43.408;24.626;2023-01-01T08:17:56;43.87;;;27.40;;
8312;SDS011;4194;43.408;24.626;2023-01-01T08:20:24;40.33;;;24.37;;
8312;SDS011;4194;43.408;24.626;2023-01-01T08:22:54;41.10;;;23.33;;
8312;SDS011;4194;43.408;24.626;2023-01-01T08:25:20;45.90;;;26.37;;
8312;SDS011;4194;43.408;24.626;2023-01-01T08:27:46;40.47;;;23.97;;
8312;SDS011;4194;43.408;24.626;2023-01-01T08:30:13;34.10;;;23.97;;
8312;SDS011;4194;43.408;24.626;2023-01-01T08:32:39;34.70;;;23.77;;
8312;SDS011;4194;43.408;24.626;2023-01-01T08:35:05;36.07;;;25.07;;
8312;SDS011;4194;43.408;24.626;2023-01-01T08:37:31;37.67;;;24.67;;
8312;SDS011;4194;43.408;24.626;2023-01-01T08:39:57;36.10;;;24.70;;
8312;SDS011;4194;43.408;24.626;2023-01-01T08:42:22;36.63;;;24.50;;
8312;SDS011;4194;43.408;24.626;2023-01-01T08:44:48;28.63;;;20.73;;
8312;SDS011;4194;43.408;24.626;2023-01-01T08:47:17;28.33;;;19.73;;
8312;SDS011;4194;43.408;24.626;2023-01-01T08:49:46;28.30;;;18.83;;
8312;SDS011;4194;43.408;24.626;2023-01-01T08:52:12;31.30;;;19.30;;
8312;SDS011;4194;43.408;24.626;2023-01-01T08:54:38;25.67;;;17.93;;
8312;SDS011;4194;43.408;24.626;2023-01-01T08:57:04;27.33;;;18.73;;
8312;SDS011;4194;43.408;24.626;2023-01-01T08:59:29;22.17;;;17.57;;
8312;SDS011;4194;43.408;24.626;2023-01-01T09:01:55;25.60;;;18.30;;
8312;SDS011;4194;43.408;24.626;2023-01-01T09:04:21;25.53;;;18.60;;
8312;SDS011;4194;43.408;24.626;2023-01-01T09:06:46;26.17;;;16.97;;
8312;SDS011;4194;43.408;24.626;2023-01-01T09:09:12;26.37;;;17.37;;
8312;SDS011;4194;43.408;24.626;2023-01-01T09:11:38;24.67;;;16.83;;
8312;SDS011;4194;43.408;24.626;2023-01-01T09:14:04;23.43;;;15.83;;
8312;SDS011;4194;43.408;24.626;2023-01-01T09:16:29;27.67;;;16.03;;
8312;SDS011;4194;43.408;24.626;2023-01-01T09:18:55;20.57;;;14.37;;
8312;SDS011;4194;43.408;24.626;2023-01-01T09:21:21;22.67;;;15.23;;
8312;SDS011;4194;43.408;24.626;2023-01-01T09:23:47;23.47;;;15.23;;
8312;SDS011;4194;43.408;24.626;2023-01-01T09:26:12;20.43;;;14.43;;
8312;SDS011;4194;43.408;24.626;2023-01-01T09:28:38;24.60;;;15.07;;
8312;SDS011;4194;43.408;24.626;2023-01-01T09:31:04;21.57;;;14.73;;
8312;SDS011;4194;43.408;24.626;2023-01-01T09:33:30;20.00;;;14.67;;
8312;SDS011;4194;43.408;24.626;2023-01-01T09:38:51;13.63;;;10.87;;
8312;SDS011;4194;43.408;24.626;2023-01-01T09:46:45;19.30;;;11.67;;
8312;SDS011;4194;43.408;24.626;2023-01-01T09:49:16;12.83;;;9.90;;
8312;SDS011;4194;43.408;24.626;2023-01-01T09:51:50;15.00;;;10.53;;
8312;SDS011;4194;43.408;24.626;2023-01-01T09:54:27;20.70;;;9.90;;
8312;SDS011;4194;43.408;24.626;2023-01-01T09:56:54;12.37;;;8.03;;
8312;SDS011;4194;43.408;24.626;2023-01-01T09:59:23;12.10;;;6.63;;
8312;SDS011;4194;43.408;24.626;2023-01-01T10:07:33;10.03;;;6.70;;
8312;SDS011;4194;43.408;24.626;2023-01-01T10:10:09;8.60;;;5.83;;
8312;SDS011;4194;43.408;24.626;2023-01-01T10:15:38;12.60;;;6.00;;
8312;SDS011;4194;43.408;24.626;2023-01-01T10:18:13;6.37;;;4.20;;
8312;SDS011;4194;43.408;24.626;2023-01-01T10:20:46;8.40;;;5.27;;
8312;SDS011;4194;43.408;24.626;2023-01-01T10:23:47;9.87;;;5.00;;
8312;SDS011;4194;43.408;24.626;2023-01-01T10:26:21;6.93;;;4.67;;
8312;SDS011;4194;43.408;24.626;2023-01-01T10:28:54;8.80;;;5.30;;
8312;SDS011;4194;43.408;24.626;2023-01-01T10:31:35;5.63;;;4.30;;
8312;SDS011;4194;43.408;24.626;2023-01-01T10:36:56;11.83;;;4.90;;
8312;SDS011;4194;43.408;24.626;2023-01-01T10:39:24;8.20;;;4.97;;
8312;SDS011;4194;43.408;24.626;2023-01-01T10:41:50;5.57;;;4.57;;
8312;SDS011;4194;43.408;24.626;2023-01-01T10:44:29;6.47;;;5.03;;
8312;SDS011;4194;43.408;24.626;2023-01-01T10:47:02;7.97;;;3.60;;
8312;SDS011;4194;43.408;24.626;2023-01-01T10:49:53;5.57;;;3.60;;
8312;SDS011;4194;43.408;24.626;2023-01-01T10:52:24;4.13;;;3.00;;
8312;SDS011;4194;43.408;24.626;2023-01-01T10:54:58;5.03;;;2.63;;
8312;SDS011;4194;43.408;24.626;2023-01-01T11:00:09;9.90;;;5.77;;
8312;SDS011;4194;43.408;24.626;2023-01-01T11:02:35;12.83;;;6.90;;
8312;SDS011;4194;43.408;24.626;2023-01-01T11:05:18;9.43;;;5.97;;
8312;SDS011;4194;43.408;24.626;2023-01-01T11:07:45;10.17;;;5.20;;
8312;SDS011;4194;43.408;24.626;2023-01-01T11:10:24;7.13;;;5.57;;
8312;SDS011;4194;43.408;24.626;2023-01-01T11:12:50;10.33;;;5.47;;
8312;SDS011;4194;43.408;24.626;2023-01-01T11:17:49;7.77;;;4.90;;
8312;SDS011;4194;43.408;24.626;2023-01-01T11:20:18;7.57;;;4.97;;
8312;SDS011;4194;43.408;24.626;2023-01-01T11:22:46;6.60;;;4.60;;
8312;SDS011;4194;43.408;24.626;2023-01-01T11:31:08;7.80;;;4.77;;
8312;SDS011;4194;43.408;24.626;2023-01-01T11:33:43;5.47;;;3.87;;
8312;SDS011;4194;43.408;24.626;2023-01-01T11:36:28;6.57;;;3.67;;
8312;SDS011;4194;43.408;24.626;2023-01-01T11:41:47;4.63;;;2.77;;
8312;SDS011;4194;43.408;24.626;2023-01-01T11:44:50;8.03;;;2.90;;
8312;SDS011;4194;43.408;24.626;2023-01-01T11:47:25;7.10;;;3.40;;
8312;SDS011;4194;43.408;24.626;2023-01-01T11:52:42;5.90;;;4.27;;
8312;SDS011;4194;43.408;24.626;2023-01-01T11:55:21;5.00;;;2.23;;
8312;SDS011;4194;43.408;24.626;2023-01-01T11:58:14;3.37;;;2.50;;
8312;SDS011;4194;43.408;24.626;2023-01-01T12:00:43;3.83;;;2.33;;
8312;SDS011;4194;43.408;24.626;2023-01-01T12:03:22;5.07;;;2.40;;
8312;SDS011;4194;43.408;24.626;2023-01-01T12:08:53;2.83;;;2.00;;
8312;SDS011;4194;43.408;24.626;2023-01-01T12:11:43;2.43;;;1.80;;
8312;SDS011;4194;43.408;24.626;2023-01-01T12:14:39;3.63;;;2.47;;
8312;SDS011;4194;43.408;24.626;2023-01-01T12:17:20;3.73;;;1.57;;
8312;SDS011;4194;43.408;24.626;2023-01-01T12:22:18;4.07;;;2.20;;
8312;SDS011;4194;43.408;24.626;2023-01-01T12:24:45;3.00;;;2.13;;
8312;SDS011;4194;43.408;24.626;2023-01-01T12:27:16;3.17;;;2.43;;
8312;SDS011;4194;43.408;24.626;2023-01-01T12:32:26;6.00;;;2.53;;
8312;SDS011;4194;43.408;24.626;2023-01-01T12:35:13;3.90;;;1.83;;
8312;SDS011;4194;43.408;24.626;2023-01-01T12:46:47;3.30;;;1.80;;
8312;SDS011;4194;43.408;24.626;2023-01-01T12:49:25;6.17;;;2.17;;
8312;SDS011;4194;43.408;24.626;2023-01-01T12:52:12;2.70;;;1.67;;
8312;SDS011;4194;43.408;24.626;2023-01-01T13:00:33;4.17;;;1.60;;
8312;SDS011;4194;43.408;24.626;2023-01-01T13:03:14;4.70;;;2.17;;
8312;SDS011;4194;43.408;24.626;2023-01-01T13:05:44;9.87;;;2.77;;
8312;SDS011;4194;43.408;24.626;2023-01-01T13:08:15;2.50;;;1.87;;
8312;SDS011;4194;43.408;24.626;2023-01-01T13:10:41;2.23;;;1.90;;
8312;SDS011;4194;43.408;24.626;2023-01-01T13:13:09;4.00;;;2.20;;
8312;SDS011;4194;43.408;24.626;2023-01-01T13:18:06;5.10;;;2.93;;
8312;SDS011;4194;43.408;24.626;2023-01-01T13:20:39;4.10;;;2.50;;
8312;SDS011;4194;43.408;24.626;2023-01-01T14:01:39;6.17;;;2.53;;
8312;SDS011;4194;43.408;24.626;2023-01-01T14:04:42;5.17;;;2.43;;
8312;SDS011;4194;43.408;24.626;2023-01-01T14:07:21;4.47;;;2.60;;
8312;SDS011;4194;43.408;24.626;2023-01-01T14:10:29;5.43;;;3.13;;
8312;SDS011;4194;43.408;24.626;2023-01-01T14:17:58;8.47;;;4.20;;
8312;SDS011;4194;43.408;24.626;2023-01-01T14:20:31;8.00;;;4.83;;
8312;SDS011;4194;43.408;24.626;2023-01-01T14:23:03;4.57;;;3.77;;
8312;SDS011;4194;43.408;24.626;2023-01-01T14:25:42;9.07;;;4.37;;
8312;SDS011;4194;43.408;24.626;2023-01-01T14:28:18;6.07;;;4.63;;
8312;SDS011;4194;43.408;24.626;2023-01-01T14:30:49;11.40;;;4.73;;
8312;SDS011;4194;43.408;24.626;2023-01-01T14:33:23;5.30;;;3.67;;
8312;SDS011;4194;43.408;24.626;2023-01-01T14:35:56;8.57;;;4.07;;
8312;SDS011;4194;43.408;24.626;2023-01-01T14:41:09;5.13;;;3.83;;
8312;SDS011;4194;43.408;24.626;2023-01-01T14:43:37;9.33;;;5.33;;
8312;SDS011;4194;43.408;24.626;2023-01-01T14:46:04;9.77;;;7.10;;
8312;SDS011;4194;43.408;24.626;2023-01-01T14:48:31;16.63;;;10.53;;
8312;SDS011;4194;43.408;24.626;2023-01-01T14:50:58;16.73;;;13.13;;
8312;SDS011;4194;43.408;24.626;2023-01-01T14:53:31;19.57;;;14.30;;
8312;SDS011;4194;43.408;24.626;2023-01-01T14:55:58;16.70;;;12.03;;
8312;SDS011;4194;43.408;24.626;2023-01-01T14:58:24;16.57;;;10.87;;
8312;SDS011;4194;43.408;24.626;2023-01-01T15:00:52;14.07;;;8.67;;
8312;SDS011;4194;43.408;24.626;2023-01-01T15:03:19;15.97;;;8.90;;
8312;SDS011;4194;43.408;24.626;2023-01-01T15:05:56;14.63;;;9.40;;
8312;SDS011;4194;43.408;24.626;2023-01-01T15:08:23;14.77;;;9.97;;
8312;SDS011;4194;43.408;24.626;2023-01-01T15:10:51;22.03;;;10.37;;
8312;SDS011;4194;43.408;24.626;2023-01-01T15:13:19;22.63;;;11.43;;
8312;SDS011;4194;43.408;24.626;2023-01-01T15:15:50;19.63;;;12.03;;
8312;SDS011;4194;43.408;24.626;2023-01-01T15:21:03;32.77;;;17.77;;
8312;SDS011;4194;43.408;24.626;2023-01-01T15:24:23;35.70;;;18.93;;
8312;SDS011;4194;43.408;24.626;2023-01-01T15:26:52;33.47;;;20.13;;
8312;SDS011;4194;43.408;24.626;2023-01-01T15:29:25;30.60;;;20.40;;
8312;SDS011;4194;43.408;24.626;2023-01-01T15:32:03;51.03;;;28.33;;
8312;SDS011;4194;43.408;24.626;2023-01-01T15:34:46;86.87;;;47.03;;
8312;SDS011;4194;43.408;24.626;2023-01-01T15:37:14;64.63;;;35.93;;
8312;SDS011;4194;43.408;24.626;2023-01-01T15:39:47;112.83;;;58.13;;
8312;SDS011;4194;43.408;24.626;2023-01-01T15:47:43;92.83;;;49.30;;
8312;SDS011;4194;43.408;24.626;2023-01-01T15:50:38;74.20;;;40.97;;
8312;SDS011;4194;43.408;24.626;2023-01-01T15:53:19;72.00;;;37.20;;
8312;SDS011;4194;43.408;24.626;2023-01-01T15:55:53;54.30;;;33.23;;
8312;SDS011;4194;43.408;24.626;2023-01-01T15:58:34;56.47;;;30.90;;
8312;SDS011;4194;43.408;24.626;2023-01-01T16:01:01;46.33;;;26.13;;
8312;SDS011;4194;43.408;24.626;2023-01-01T16:03:29;47.10;;;27.57;;
8312;SDS011;4194;43.408;24.626;2023-01-01T16:05:58;68.67;;;41.23;;
8312;SDS011;4194;43.408;24.626;2023-01-01T16:08:24;67.77;;;39.70;;
8312;SDS011;4194;43.408;24.626;2023-01-01T16:10:51;71.23;;;40.87;;
8312;SDS011;4194;43.408;24.626;2023-01-01T16:13:17;70.03;;;39.20;;
8312;SDS011;4194;43.408;24.626;2023-01-01T16:18:20;75.73;;;40.97;;
8312;SDS011;4194;43.408;24.626;2023-01-01T16:20:58;70.70;;;36.83;;
8312;SDS011;4194;43.408;24.626;2023-01-01T16:23:25;63.77;;;35.60;;
8312;SDS011;4194;43.408;24.626;2023-01-01T16:25:51;61.13;;;34.37;;
8312;SDS011;4194;43.408;24.626;2023-01-01T16:28:16;60.03;;;32.93;;
8312;SDS011;4194;43.408;24.626;2023-01-01T16:30:42;50.97;;;30.37;;
8312;SDS011;4194;43.408;24.626;2023-01-01T16:33:14;54.07;;;31.03;;
8312;SDS011;4194;43.408;24.626;2023-01-01T16:35:42;48.67;;;29.03;;
8312;SDS011;4194;43.408;24.626;2023-01-01T16:38:08;45.87;;;26.23;;
8312;SDS011;4194;43.408;24.626;2023-01-01T16:40:34;49.27;;;27.83;;
8312;SDS011;4194;43.408;24.626;2023-01-01T16:43:00;43.13;;;28.37;;
8312;SDS011;4194;43.408;24.626;2023-01-01T16:45:26;57.90;;;34.53;;
8312;SDS011;4194;43.408;24.626;2023-01-01T16:47:52;54.70;;;38.07;;
8312;SDS011;4194;43.408;24.626;2023-01-01T16:50:19;58.13;;;35.33;;
8312;SDS011;4194;43.408;24.626;2023-01-01T16:52:45;56.53;;;35.23;;
8312;SDS011;4194;43.408;24.626;2023-01-01T16:55:11;56.30;;;32.87;;
8312;SDS011;4194;43.408;24.626;2023-01-01T16:57:37;51.87;;;31.40;;
8312;SDS011;4194;43.408;24.626;2023-01-01T17:00:04;49.20;;;31.50;;
8312;SDS011;4194;43.408;24.626;2023-01-01T17:02:30;45.00;;;27.63;;
8312;SDS011;4194;43.408;24.626;2023-01-01T17:04:56;45.83;;;28.07;;
8312;SDS011;4194;43.408;24.626;2023-01-01T17:07:22;46.23;;;29.00;;
8312;SDS011;4194;43.408;24.626;2023-01-01T17:09:47;47.17;;;28.83;;
8312;SDS011;4194;43.408;24.626;2023-01-01T17:12:13;42.23;;;28.57;;
8312;SDS011;4194;43.408;24.626;2023-01-01T17:14:38;38.57;;;25.73;;
8312;SDS011;4194;43.408;24.626;2023-01-01T17:17:04;45.83;;;28.53;;
8312;SDS011;4194;43.408;24.626;2023-01-01T17:19:30;56.27;;;30.00;;
8312;SDS011;4194;43.408;24.626;2023-01-01T17:21:55;50.13;;;28.77;;
8312;SDS011;4194;43.408;24.626;2023-01-01T17:24:22;48.37;;;28.57;;
8312;SDS011;4194;43.408;24.626;2023-01-01T17:26:52;51.20;;;29.90;;
8312;SDS011;4194;43.408;24.626;2023-01-01T17:29:19;47.53;;;29.37;;